createdAt,value
2022-09-23T00:01:16.635Z,101709.00
2022-09-23T00:03:46.630Z,101710.63
2022-09-23T00:06:16.971Z,101708.03
2022-09-23T00:08:45.464Z,101715.69
2022-09-23T00:11:16.484Z,101713.91
2022-09-23T00:13:46.729Z,101706.94
2022-09-23T00:16:15.453Z,101712.94
2022-09-23T00:18:44.240Z,101712.00
2022-09-23T00:21:14.685Z,101714.50
2022-09-23T00:23:44.324Z,101715.22
2022-09-23T00:26:15.901Z,101722.94
2022-09-23T00:28:44.993Z,101712.47
2022-09-23T00:31:15.707Z,101717.53
2022-09-23T00:33:44.368Z,101723.50
2022-09-23T00:36:15.803Z,101719.88
2022-09-23T00:38:44.661Z,101713.84
2022-09-23T00:41:15.324Z,101712.00
2022-09-23T00:43:46.130Z,101715.44
2022-09-23T00:46:19.035Z,101707.59
2022-09-23T00:48:49.454Z,101705.78
2022-09-23T00:51:25.139Z,101709.16
2022-09-23T00:53:55.368Z,101705.63
2022-09-23T00:56:27.717Z,101709.88
2022-09-23T00:58:59.535Z,101708.06
2022-09-23T01:01:28.096Z,101708.03
2022-09-23T01:03:57.782Z,101714.00
2022-09-23T01:06:26.460Z,101713.94
2022-09-23T01:08:55.022Z,101713.91
2022-09-23T01:11:38.501Z,101711.28
2022-09-23T01:14:20.026Z,101707.78
2022-09-23T01:16:59.576Z,101718.13
2022-09-23T01:19:47.727Z,101709.47
2022-09-23T01:22:24.382Z,101719.84
2022-09-23T01:25:17.981Z,101722.38
2022-09-23T01:28:12.525Z,101730.94
2022-09-23T01:30:51.690Z,101724.00
2022-09-23T01:33:25.775Z,101723.13
2022-09-23T01:36:08.431Z,101729.06
2022-09-23T01:38:45.730Z,101729.06
2022-09-23T01:41:31.085Z,101723.81
2022-09-23T01:44:05.048Z,101730.63
2022-09-23T01:46:42.186Z,101724.56
2022-09-23T01:49:18.242Z,101721.13
2022-09-23T01:51:53.629Z,101727.09
2022-09-23T01:54:27.346Z,101728.84
2022-09-23T01:57:01.792Z,101721.94
2022-09-23T01:59:36.252Z,101732.25
2022-09-23T02:02:11.651Z,101725.34
2022-09-23T02:04:48.306Z,101719.25
2022-09-23T02:07:21.536Z,101726.13
2022-09-23T02:09:56.091Z,101725.25
2022-09-23T02:12:29.193Z,101724.31
2022-09-23T02:15:03.853Z,101726.78
2022-09-23T02:17:39.749Z,101729.31
2022-09-23T02:20:09.545Z,101725.78
2022-09-23T02:22:42.274Z,101724.00
2022-09-23T02:25:12.601Z,101720.53
2022-09-23T02:27:47.666Z,101716.13
2022-09-23T02:30:20.563Z,101713.53
2022-09-23T02:32:55.960Z,101716.06
2022-09-23T02:35:33.035Z,101715.06
2022-09-23T02:38:12.009Z,101721.03
2022-09-23T02:40:50.670Z,101720.88
2022-09-23T02:43:28.032Z,101719.06
2022-09-23T02:45:57.480Z,101721.59
2022-09-23T02:48:31.895Z,101711.22
2022-09-23T02:51:02.440Z,101721.50
2022-09-23T02:53:33.945Z,101717.16
2022-09-23T02:56:02.462Z,101717.97
2022-09-23T02:58:35.551Z,101721.38
2022-09-23T03:01:16.734Z,101723.94
2022-09-23T03:03:54.014Z,101718.75
2022-09-23T03:06:46.109Z,101721.19
2022-09-23T03:09:20.827Z,101727.16
2022-09-23T03:11:58.632Z,101721.97
2022-09-23T03:14:34.252Z,101721.00
2022-09-23T03:17:07.101Z,101729.53
2022-09-23T03:19:44.629Z,101726.03
2022-09-23T03:22:18.648Z,101723.44
2022-09-23T03:24:53.769Z,101723.31
2022-09-23T03:27:25.963Z,101725.84
2022-09-23T03:29:56.050Z,101740.38
2022-09-23T03:32:28.017Z,101731.78
2022-09-23T03:35:01.290Z,101730.00
2022-09-23T03:37:35.374Z,101729.97
2022-09-23T03:40:09.999Z,101731.59
2022-09-23T03:42:39.883Z,101723.88
2022-09-23T03:45:13.106Z,101726.44
2022-09-23T03:47:44.696Z,101722.09
2022-09-23T03:50:17.398Z,101730.06
2022-09-23T03:52:46.522Z,101726.84
2022-09-23T03:55:18.771Z,101720.09
2022-09-23T03:57:48.472Z,101717.81
2022-09-23T04:00:20.654Z,101729.22
2022-09-23T04:02:49.865Z,101726.84
2022-09-23T04:05:19.769Z,101721.78
2022-09-23T04:07:48.404Z,101720.31
2022-09-23T04:10:16.517Z,101718.78
2022-09-23T04:12:44.550Z,101719.78
2022-09-23T04:15:12.588Z,101723.38
2022-09-23T04:17:40.974Z,101727.75
2022-09-23T04:20:10.183Z,101723.53
2022-09-23T04:22:39.608Z,101726.97
2022-09-23T04:25:08.838Z,101732.13
2022-09-23T04:27:37.926Z,101725.09
2022-09-23T04:30:07.115Z,101730.00
2022-09-23T04:32:35.245Z,101729.75
2022-09-23T04:35:03.262Z,101726.03
2022-09-23T04:37:31.547Z,101732.72
2022-09-23T04:40:01.021Z,101723.94
2022-09-23T04:42:30.114Z,101737.53
2022-09-23T04:44:58.158Z,101741.69
2022-09-23T04:47:26.292Z,101742.44
2022-09-23T04:49:59.055Z,101745.66
2022-09-23T04:52:30.116Z,101742.91
2022-09-23T04:55:00.873Z,101748.81
2022-09-23T04:57:31.928Z,101739.19
2022-09-23T05:00:00.152Z,101742.56
2022-09-23T05:02:28.553Z,101751.88
2022-09-23T05:04:56.773Z,101750.91
2022-09-23T05:07:26.320Z,101752.59
2022-09-23T05:09:55.379Z,101755.06
2022-09-23T05:12:24.893Z,101756.78
2022-09-23T05:14:53.103Z,101764.47
2022-09-23T05:17:22.540Z,101754.16
2022-09-23T05:19:50.545Z,101759.31
2022-09-23T05:22:19.758Z,101763.56
2022-09-23T05:24:48.045Z,101757.38
2022-09-23T05:27:19.333Z,101755.75
2022-09-23T05:29:49.558Z,101757.44
2022-09-23T05:32:17.526Z,101761.72
2022-09-23T05:34:45.945Z,101757.31
2022-09-23T05:37:14.337Z,101764.84
2022-09-23T05:39:43.530Z,101763.94
2022-09-23T05:42:12.490Z,101758.66
2022-09-23T05:44:40.647Z,101763.66
2022-09-23T05:47:10.332Z,101766.16
2022-09-23T05:49:58.739Z,101766.91
2022-09-23T05:52:26.936Z,101778.03
2022-09-23T05:54:55.017Z,101771.88
2022-09-23T05:57:23.161Z,101771.88
2022-09-23T05:59:51.180Z,101767.53
2022-09-23T06:02:20.760Z,101776.06
2022-09-23T06:04:48.764Z,101779.47
2022-09-23T06:07:16.879Z,101783.75
2022-09-23T06:09:45.575Z,101780.34
2022-09-23T06:12:14.328Z,101783.81
2022-09-23T06:14:42.612Z,101788.94
2022-09-23T06:17:11.634Z,101783.00
2022-09-23T06:19:41.227Z,101792.53
2022-09-23T06:22:09.201Z,101791.75
2022-09-23T06:24:37.220Z,101794.41
2022-09-23T06:27:05.452Z,101798.81
2022-09-23T06:29:33.787Z,101801.44
2022-09-23T06:32:02.617Z,101797.28
2022-09-23T06:34:32.626Z,101800.00
2022-09-23T06:37:16.491Z,101794.03
2022-09-23T06:39:46.676Z,101800.22
2022-09-23T06:42:15.954Z,101807.19
2022-09-23T06:44:44.217Z,101808.25
2022-09-23T06:47:12.228Z,101809.19
2022-09-23T06:49:40.201Z,101803.34
2022-09-23T06:52:09.769Z,101816.41
2022-09-23T06:54:38.149Z,101803.63
2022-09-23T06:57:06.654Z,101813.19
2022-09-23T06:59:35.765Z,101814.19
2022-09-23T07:02:04.196Z,101810.94
2022-09-23T07:04:33.684Z,101812.00
2022-09-23T07:07:03.008Z,101814.75
2022-09-23T07:09:32.754Z,101818.38
2022-09-23T07:12:02.281Z,101808.28
2022-09-23T07:14:31.099Z,101805.97
2022-09-23T07:17:00.086Z,101814.84
2022-09-23T07:19:28.263Z,101818.47
2022-09-23T07:21:57.217Z,101820.41
2022-09-23T07:24:25.400Z,101818.00
2022-09-23T07:26:55.212Z,101828.50
2022-09-23T07:29:23.713Z,101824.50
2022-09-23T07:31:52.370Z,101820.41
2022-09-23T07:34:22.050Z,101824.13
2022-09-23T07:36:50.596Z,101825.28
2022-09-23T07:39:20.376Z,101827.25
2022-09-23T07:41:49.957Z,101827.44
2022-09-23T07:44:21.934Z,101831.00
2022-09-23T07:46:57.464Z,101827.81
2022-09-23T07:49:25.808Z,101835.75
2022-09-23T07:51:54.106Z,101831.63
2022-09-23T07:54:22.298Z,101831.75
2022-09-23T07:56:50.360Z,101837.19
2022-09-23T07:59:20.151Z,101833.09
2022-09-23T08:01:50.653Z,101835.03
2022-09-23T08:04:24.132Z,101837.75
2022-09-23T08:06:54.730Z,101831.69
2022-09-23T08:09:25.393Z,101837.03
2022-09-23T08:11:54.127Z,101838.25
2022-09-23T08:14:24.384Z,101838.31
2022-09-23T08:16:53.385Z,101837.56
2022-09-23T08:19:21.704Z,101829.88
2022-09-23T08:21:52.425Z,101830.00
2022-09-23T08:24:23.751Z,101841.38
2022-09-23T08:26:54.441Z,101835.31
2022-09-23T08:29:26.898Z,101835.38
2022-09-23T08:31:55.678Z,101847.59
2022-09-23T08:34:25.134Z,101841.63
2022-09-23T08:36:53.524Z,101838.38
2022-09-23T08:39:23.618Z,101846.38
2022-09-23T08:42:06.886Z,101841.44
2022-09-23T08:44:47.919Z,101847.63
2022-09-23T08:47:22.019Z,101851.13
2022-09-23T08:49:58.572Z,101852.97
2022-09-23T08:52:34.242Z,101851.53
2022-09-23T08:55:04.910Z,101850.00
2022-09-23T08:57:44.185Z,101851.94
2022-09-23T09:00:22.044Z,101852.88
2022-09-23T09:02:51.588Z,101847.81
2022-09-23T09:05:27.350Z,101846.31
2022-09-23T09:07:59.521Z,101842.06
2022-09-23T09:10:35.231Z,101842.94
2022-09-23T09:13:07.664Z,101847.31
2022-09-23T09:15:43.570Z,101843.47
2022-09-23T09:18:19.867Z,101845.63
2022-09-23T09:20:54.945Z,101850.94
2022-09-23T09:23:25.617Z,101842.44
2022-09-23T09:25:58.555Z,101845.94
2022-09-23T09:28:34.039Z,101844.50
2022-09-23T09:31:12.196Z,101851.63
2022-09-23T09:33:45.981Z,101855.22
2022-09-23T09:36:24.983Z,101849.81
2022-09-23T09:38:54.534Z,101845.31
2022-09-23T09:41:24.758Z,101846.28
2022-09-23T09:43:56.423Z,101850.75
2022-09-23T09:46:48.171Z,101851.06
2022-09-23T09:49:26.622Z,101859.13
2022-09-23T09:52:14.317Z,101853.97
2022-09-23T09:54:44.725Z,101859.25
2022-09-23T09:57:22.159Z,101852.59
2022-09-23T09:59:50.734Z,101843.06
2022-09-23T10:02:29.386Z,101853.59
2022-09-23T10:05:06.306Z,101847.75
2022-09-23T10:07:36.813Z,101851.38
2022-09-23T10:10:32.235Z,101853.16
2022-09-23T10:13:16.103Z,101855.69
2022-09-23T10:15:46.033Z,101859.28
2022-09-23T10:18:21.087Z,101847.28
2022-09-23T10:20:50.667Z,101857.72
2022-09-23T10:23:24.112Z,101861.38
2022-09-23T10:26:00.199Z,101856.22
2022-09-23T10:28:43.211Z,101846.97
2022-09-23T10:31:14.260Z,101848.13
2022-09-23T10:33:50.012Z,101839.69
2022-09-23T10:36:18.929Z,101836.50
2022-09-23T10:38:50.685Z,101835.94
2022-09-23T10:41:45.951Z,101837.03
2022-09-23T10:44:45.631Z,101840.16
2022-09-23T10:47:24.293Z,101832.91
2022-09-23T10:50:12.033Z,101835.13
2022-09-23T10:52:50.233Z,101830.25
2022-09-23T10:55:32.074Z,101832.13
2022-09-23T10:58:21.674Z,101833.16
2022-09-23T11:01:05.692Z,101823.00
2022-09-23T11:04:03.457Z,101828.22
2022-09-23T11:06:49.096Z,101830.13
2022-09-23T11:09:32.296Z,101820.75
2022-09-23T11:12:13.458Z,101823.44
2022-09-23T11:14:52.378Z,101827.00
2022-09-23T11:17:44.349Z,101821.06
2022-09-23T11:20:28.874Z,101823.88
2022-09-23T11:23:19.273Z,101814.59
2022-09-23T11:26:19.169Z,101823.41
2022-09-23T11:29:14.622Z,101817.16
2022-09-23T11:31:58.819Z,101814.44
2022-09-23T11:35:05.099Z,101815.97
2022-09-23T11:37:39.910Z,101816.59
2022-09-23T11:40:18.117Z,101820.13
2022-09-23T11:42:55.402Z,101806.25
2022-09-23T11:45:29.535Z,101811.91
2022-09-23T11:48:04.332Z,101810.31
2022-09-23T11:50:38.881Z,101802.47
2022-09-23T11:53:14.389Z,101799.00
2022-09-23T11:55:57.495Z,101799.00
2022-09-23T11:58:30.896Z,101800.66
2022-09-23T12:01:04.427Z,101812.66
2022-09-23T12:03:45.777Z,101808.00
2022-09-23T12:06:20.345Z,101815.59
2022-09-23T12:08:53.250Z,101806.91
2022-09-23T12:11:32.060Z,101810.34
2022-09-23T12:14:14.459Z,101799.50
2022-09-23T12:17:07.685Z,101794.53
2022-09-23T12:20:04.092Z,101798.97
2022-09-23T12:22:49.847Z,101788.53
2022-09-23T12:25:47.255Z,101787.63
2022-09-23T12:28:23.510Z,101791.03
2022-09-23T12:30:54.972Z,101787.38
2022-09-23T12:33:26.518Z,101793.53
2022-09-23T12:35:56.150Z,101793.69
2022-09-23T12:38:30.905Z,101790.28
2022-09-23T12:40:59.084Z,101790.28
2022-09-23T12:43:34.600Z,101792.00
2022-09-23T12:46:20.890Z,101786.69
2022-09-23T12:49:02.951Z,101787.59
2022-09-23T12:51:32.173Z,101795.50
2022-09-23T12:54:22.745Z,101778.94
2022-09-23T12:57:12.080Z,101782.38
2022-09-23T13:00:14.777Z,101779.72
2022-09-23T13:03:13.270Z,101778.81
2022-09-23T13:06:05.768Z,101776.16
2022-09-23T13:08:39.001Z,101772.56
2022-09-23T13:11:18.006Z,101762.03
2022-09-23T13:13:49.907Z,101759.34
2022-09-23T13:16:27.241Z,101759.31
2022-09-23T13:18:57.025Z,101759.22
2022-09-23T13:22:13.658Z,101759.25
2022-09-23T13:24:46.608Z,101758.34
2022-09-23T13:27:20.891Z,101758.31
2022-09-23T13:29:54.793Z,101750.53
2022-09-23T13:32:30.015Z,101748.97
2022-09-23T13:35:01.958Z,101760.47
2022-09-23T13:37:40.132Z,101746.56
2022-09-23T13:40:10.863Z,101756.91
2022-09-23T13:42:41.993Z,101750.69
2022-09-23T13:45:17.064Z,101753.13
2022-09-23T13:47:55.522Z,101745.00
2022-09-23T13:50:25.620Z,101753.41
2022-09-23T13:52:54.970Z,101756.75
2022-09-23T13:55:32.350Z,101750.72
2022-09-23T13:58:02.589Z,101743.78
2022-09-23T14:00:36.476Z,101744.63
2022-09-23T14:03:18.050Z,101742.03
2022-09-23T14:05:49.465Z,101740.38
2022-09-23T14:08:17.530Z,101749.28
2022-09-23T14:10:47.200Z,101745.22
2022-09-23T14:13:25.927Z,101744.53
2022-09-23T14:15:57.749Z,101746.50
2022-09-23T14:18:34.463Z,101750.06
2022-09-23T14:21:06.414Z,101750.09
2022-09-23T14:23:48.469Z,101746.63
2022-09-23T14:26:21.658Z,101740.53
2022-09-23T14:28:59.977Z,101750.19
2022-09-23T14:31:33.061Z,101745.78
2022-09-23T14:34:02.671Z,101741.13
2022-09-23T14:36:55.222Z,101744.34
2022-09-23T14:39:23.988Z,101741.75
2022-09-23T14:41:52.551Z,101747.94
2022-09-23T14:44:25.172Z,101748.03
2022-09-23T14:46:58.278Z,101744.63
2022-09-23T14:49:30.117Z,101737.72
2022-09-23T14:52:04.220Z,101737.81
2022-09-23T14:54:36.756Z,101739.59
2022-09-23T14:57:32.197Z,101738.75
2022-09-23T15:00:03.974Z,101746.63
2022-09-23T15:02:35.232Z,101747.53
2022-09-23T15:05:19.730Z,101750.16
2022-09-23T15:08:01.531Z,101745.81
2022-09-23T15:10:33.002Z,101747.59
2022-09-23T15:13:06.673Z,101749.34
2022-09-23T15:15:37.672Z,101744.06
2022-09-23T15:18:08.385Z,101749.25
2022-09-23T15:20:37.988Z,101741.38
2022-09-23T15:23:06.014Z,101745.72
2022-09-23T15:25:36.033Z,101739.56
2022-09-23T15:28:18.856Z,101746.47
2022-09-23T15:30:47.036Z,101744.72
2022-09-23T15:33:16.648Z,101741.28
2022-09-23T15:35:50.197Z,101755.25
2022-09-23T15:38:18.916Z,101753.50
2022-09-23T15:40:47.441Z,101778.66
2022-09-23T15:43:21.920Z,101774.94
2022-09-23T15:45:53.371Z,101781.84
2022-09-23T15:48:24.052Z,101779.13
2022-09-23T15:50:54.877Z,101774.72
2022-09-23T15:53:25.875Z,101780.69
2022-09-23T15:55:54.214Z,101787.41
2022-09-23T15:58:26.237Z,101780.84
2022-09-23T16:00:57.268Z,101783.72
2022-09-23T16:03:28.609Z,101776.41
2022-09-23T16:06:02.433Z,101777.03
2022-09-23T16:08:33.027Z,101781.94
2022-09-23T16:11:01.434Z,101781.00
2022-09-23T16:13:29.525Z,101786.16
2022-09-23T16:15:57.754Z,101793.28
2022-09-23T16:18:25.875Z,101796.81
2022-09-23T16:20:54.844Z,101797.78
2022-09-23T16:23:34.656Z,101800.66
2022-09-23T16:26:08.438Z,101805.00
2022-09-23T16:28:36.489Z,101796.50
2022-09-23T16:31:04.687Z,101793.06
2022-09-23T16:33:32.979Z,101793.97
2022-09-23T16:36:02.054Z,101803.47
2022-09-23T16:38:34.003Z,101806.88
2022-09-23T16:41:03.063Z,101816.41
2022-09-23T16:43:39.545Z,101812.03
2022-09-23T16:46:09.438Z,101804.16
2022-09-23T16:48:40.590Z,101812.81
2022-09-23T16:51:09.186Z,101812.09
2022-09-23T16:53:39.330Z,101807.81
2022-09-23T16:56:09.706Z,101808.78
2022-09-23T16:58:37.518Z,101811.47
2022-09-23T17:01:23.938Z,101801.19
2022-09-23T17:03:52.186Z,101808.09
2022-09-23T17:06:21.068Z,101808.09
2022-09-23T17:08:51.185Z,101812.31
2022-09-23T17:11:19.499Z,101810.56
2022-09-23T17:13:47.811Z,101812.19
2022-09-23T17:16:25.599Z,101818.16
2022-09-23T17:18:56.097Z,101813.78
2022-09-23T17:21:26.822Z,101824.13
2022-09-23T17:23:57.929Z,101824.22
2022-09-23T17:26:27.570Z,101824.22
2022-09-23T17:28:58.051Z,101832.94
2022-09-23T17:31:26.716Z,101831.22
2022-09-23T17:33:55.047Z,101831.22
2022-09-23T17:36:25.238Z,101827.72
2022-09-23T17:38:54.596Z,101832.84
2022-09-23T17:41:28.681Z,101834.53
2022-09-23T17:44:00.558Z,101838.66
2022-09-23T17:46:33.516Z,101835.19
2022-09-23T17:49:05.778Z,101829.94
2022-09-23T17:51:35.447Z,101840.22
2022-09-23T17:54:03.899Z,101841.81
2022-09-23T17:56:36.928Z,101852.13
2022-09-23T17:59:06.992Z,101851.09
2022-09-23T18:01:41.484Z,101850.06
2022-09-23T18:04:09.665Z,101852.56
2022-09-23T18:07:48.955Z,101854.94
2022-09-23T18:09:40.124Z,101855.38
2022-09-23T18:12:09.754Z,101863.88
2022-09-23T18:14:45.171Z,101869.75
2022-09-23T18:17:30.927Z,101862.66
2022-09-23T18:20:01.290Z,101871.28
2022-09-23T18:22:30.645Z,101878.97
2022-09-23T18:24:59.069Z,101877.06
2022-09-23T18:27:29.650Z,101874.38
2022-09-23T18:30:00.924Z,101876.97
2022-09-23T18:32:34.761Z,101872.53
2022-09-23T18:35:03.348Z,101877.78
2022-09-23T18:37:33.386Z,101879.47
2022-09-23T18:40:01.716Z,101873.44
2022-09-23T18:42:34.635Z,101883.91
2022-09-23T18:45:03.045Z,101886.44
2022-09-23T18:47:48.652Z,101885.66
2022-09-23T18:50:34.423Z,101891.69
2022-09-23T18:53:34.951Z,101888.16
2022-09-23T18:55:54.025Z,101896.75
2022-09-23T18:58:23.699Z,101901.06
2022-09-23T19:00:56.935Z,101893.19
2022-09-23T19:03:26.299Z,101896.66
2022-09-23T19:05:56.380Z,101898.38
2022-09-23T19:08:30.682Z,101899.31
2022-09-23T19:11:03.151Z,101892.44
2022-09-23T19:13:35.743Z,101901.03
2022-09-23T19:16:05.208Z,101904.50
2022-09-23T19:18:35.182Z,101904.50
2022-09-23T19:21:12.833Z,101918.34
2022-09-23T19:23:48.880Z,101908.66
2022-09-23T19:26:20.146Z,101906.09
2022-09-23T19:28:55.416Z,101908.56
2022-09-23T19:31:26.487Z,101910.34
2022-09-23T19:33:56.822Z,101914.66
2022-09-23T19:36:27.057Z,101921.56
2022-09-23T19:38:58.314Z,101908.59
2022-09-23T19:41:28.323Z,101923.28
2022-09-23T19:43:58.768Z,101921.44
2022-09-23T19:46:37.448Z,101925.69
2022-09-23T19:49:07.970Z,101925.69
2022-09-23T19:51:38.824Z,101933.44
2022-09-23T19:54:12.263Z,101933.44
2022-09-23T19:56:41.332Z,101932.59
2022-09-23T19:59:14.149Z,101928.16
2022-09-23T20:01:47.644Z,101933.22
2022-09-23T20:04:25.469Z,101934.88
2022-09-23T20:06:54.313Z,101932.19
2022-09-23T20:09:25.164Z,101932.97
2022-09-23T20:12:00.398Z,101935.44
2022-09-23T20:14:31.367Z,101923.09
2022-09-23T20:17:23.436Z,101935.00
2022-09-23T20:19:53.719Z,101939.06
2022-09-23T20:22:32.924Z,101943.19
2022-09-23T20:25:15.829Z,101946.44
2022-09-23T20:27:43.036Z,101941.84
2022-09-23T20:30:14.915Z,101949.53
2022-09-23T20:32:44.899Z,101945.13
2022-09-23T20:35:13.727Z,101953.72
2022-09-23T20:37:45.228Z,101945.00
2022-09-23T20:40:13.731Z,101955.38
2022-09-23T20:42:46.165Z,101947.56
2022-09-23T20:45:16.926Z,101952.72
2022-09-23T20:47:45.440Z,101955.25
2022-09-23T20:50:13.773Z,101956.94
2022-09-23T20:52:42.369Z,101958.63
2022-09-23T20:55:11.368Z,101958.63
2022-09-23T20:57:39.926Z,101958.53
2022-09-23T21:00:09.235Z,101955.09
2022-09-23T21:02:38.779Z,101964.66
2022-09-23T21:05:08.258Z,101964.50
2022-09-23T21:07:37.880Z,101967.91
2022-09-23T21:10:10.705Z,101971.19
2022-09-23T21:12:38.907Z,101966.69
2022-09-23T21:15:09.061Z,101969.84
2022-09-23T21:17:38.557Z,101974.75
2022-09-23T21:20:11.330Z,101975.28
2022-09-23T21:22:39.602Z,101974.06
2022-09-23T21:28:09.453Z,101966.50
2022-09-23T21:30:41.992Z,101974.94
2022-09-23T21:33:17.555Z,101977.16
2022-09-23T21:35:46.977Z,101967.56
2022-09-23T21:38:15.450Z,101974.19
2022-09-23T21:40:58.751Z,101971.50
2022-09-23T21:43:28.433Z,101973.94
2022-09-23T21:45:59.709Z,101976.38
2022-09-23T21:48:31.225Z,101975.34
2022-09-23T21:51:01.169Z,101969.13
2022-09-23T21:53:34.628Z,101971.63
2022-09-23T21:56:05.025Z,101970.56
2022-09-23T21:58:48.549Z,101966.13
2022-09-23T22:01:18.661Z,101971.06
2022-09-23T22:03:50.889Z,101979.69
2022-09-23T22:06:21.671Z,101972.66
2022-09-23T22:08:51.663Z,101974.28
2022-09-23T22:11:38.723Z,101979.34
2022-09-23T22:14:09.314Z,101974.06
2022-09-23T22:16:40.653Z,101979.97
2022-09-23T22:19:23.083Z,101972.91
2022-09-23T22:21:52.681Z,101975.38
2022-09-23T22:24:22.025Z,101978.69
2022-09-23T22:26:50.583Z,101974.16
2022-09-23T22:29:39.836Z,101973.16
2022-09-23T22:33:16.622Z,101978.19
2022-09-23T22:35:21.024Z,101980.69
2022-09-23T22:37:55.351Z,101978.88
2022-09-23T22:40:25.276Z,101985.69
2022-09-23T22:42:56.305Z,101981.16
2022-09-23T22:45:31.081Z,101974.03
2022-09-23T22:48:11.388Z,101984.34
2022-09-23T22:50:42.200Z,101984.22
2022-09-23T22:53:13.075Z,101985.03
2022-09-23T22:56:04.705Z,101982.22
2022-09-23T22:58:34.085Z,101987.34
2022-09-23T23:01:04.306Z,101985.47
2022-09-23T23:03:45.241Z,101996.66
2022-09-23T23:06:23.565Z,101997.31
2022-09-23T23:09:00.181Z,102002.53
2022-09-23T23:11:31.305Z,101988.56
2022-09-23T23:14:02.828Z,101987.63
2022-09-23T23:16:40.337Z,101994.56
2022-09-23T23:19:34.477Z,101988.44
2022-09-23T23:22:15.274Z,101987.50
2022-09-23T23:24:45.065Z,101988.28
2022-09-23T23:27:15.361Z,101989.09
2022-09-23T23:29:45.540Z,101984.81
2022-09-23T23:32:16.937Z,101986.50
2022-09-23T23:34:47.347Z,101991.63
2022-09-23T23:37:20.890Z,101977.66
2022-09-23T23:39:51.544Z,101975.91
2022-09-23T23:42:24.843Z,101980.97
2022-09-23T23:44:56.748Z,101979.25
2022-09-23T23:47:27.877Z,101985.28
2022-09-23T23:49:58.558Z,101985.28
2022-09-23T23:52:33.701Z,101980.94
2022-09-23T23:55:06.804Z,101983.47
2022-09-23T23:57:43.754Z,101979.31
